sensor_id;sensor_type;location;lat;lon;timestamp;temperature;humidity
55313;DHT22;46892;45.668;11.756;2024-03-23T00:55:44;10.50;80.90
55313;DHT22;46892;45.668;11.756;2024-03-23T00:58:10;10.40;80.40
55313;DHT22;46892;45.668;11.756;2024-03-23T01:00:36;10.50;82.60
55313;DHT22;46892;45.668;11.756;2024-03-23T01:03:01;10.40;81.90
55313;DHT22;46892;45.668;11.756;2024-03-23T01:05:27;10.30;81.40
55313;DHT22;46892;45.668;11.756;2024-03-23T01:07:53;10.40;81.10
55313;DHT22;46892;45.668;11.756;2024-03-23T01:10:18;10.30;80.50
55313;DHT22;46892;45.668;11.756;2024-03-23T01:12:44;10.20;81.40
55313;DHT22;46892;45.668;11.756;2024-03-23T01:15:10;10.10;81.00
55313;DHT22;46892;45.668;11.756;2024-03-23T01:17:36;10.00;81.10
55313;DHT22;46892;45.668;11.756;2024-03-23T01:20:01;10.00;81.10
55313;DHT22;46892;45.668;11.756;2024-03-23T01:22:27;10.00;82.90
55313;DHT22;46892;45.668;11.756;2024-03-23T01:24:53;10.10;82.00
55313;DHT22;46892;45.668;11.756;2024-03-23T01:27:19;10.10;82.00
55313;DHT22;46892;45.668;11.756;2024-03-23T01:29:44;10.00;81.10
55313;DHT22;46892;45.668;11.756;2024-03-23T01:32:10;9.90;80.40
55313;DHT22;46892;45.668;11.756;2024-03-23T01:34:36;9.80;81.10
55313;DHT22;46892;45.668;11.756;2024-03-23T01:37:01;9.80;81.90
55313;DHT22;46892;45.668;11.756;2024-03-23T01:39:27;9.90;82.60
55313;DHT22;46892;45.668;11.756;2024-03-23T01:41:53;9.80;81.50
55313;DHT22;46892;45.668;11.756;2024-03-23T01:44:18;9.70;81.50
55313;DHT22;46892;45.668;11.756;2024-03-23T01:46:44;9.60;82.00
55313;DHT22;46892;45.668;11.756;2024-03-23T01:49:10;9.70;83.50
55313;DHT22;46892;45.668;11.756;2024-03-23T01:51:37;9.70;82.30
55313;DHT22;46892;45.668;11.756;2024-03-23T01:54:03;9.60;83.10
55313;DHT22;46892;45.668;11.756;2024-03-23T01:56:35;9.70;84.00
55313;DHT22;46892;45.668;11.756;2024-03-23T01:59:05;9.60;83.20
55313;DHT22;46892;45.668;11.756;2024-03-23T02:01:32;9.60;82.90
55313;DHT22;46892;45.668;11.756;2024-03-23T02:03:58;9.50;82.90
55313;DHT22;46892;45.668;11.756;2024-03-23T02:06:27;9.40;82.80
55313;DHT22;46892;45.668;11.756;2024-03-23T02:08:54;9.40;83.60
55313;DHT22;46892;45.668;11.756;2024-03-23T02:11:20;9.40;83.70
55313;DHT22;46892;45.668;11.756;2024-03-23T02:13:46;9.40;83.90
55313;DHT22;46892;45.668;11.756;2024-03-23T02:16:11;9.30;83.60
55313;DHT22;46892;45.668;11.756;2024-03-23T02:18:38;9.40;84.00
55313;DHT22;46892;45.668;11.756;2024-03-23T02:21:04;9.40;84.20
55313;DHT22;46892;45.668;11.756;2024-03-23T02:23:30;9.20;84.10
55313;DHT22;46892;45.668;11.756;2024-03-23T02:25:55;9.10;83.60
55313;DHT22;46892;45.668;11.756;2024-03-23T02:28:21;8.80;84.10
55313;DHT22;46892;45.668;11.756;2024-03-23T02:30:51;8.80;84.30
55313;DHT22;46892;45.668;11.756;2024-03-23T02:33:17;8.80;84.80
55313;DHT22;46892;45.668;11.756;2024-03-23T02:35:46;8.70;85.30
55313;DHT22;46892;45.668;11.756;2024-03-23T02:38:11;8.80;85.30
55313;DHT22;46892;45.668;11.756;2024-03-23T02:40:37;8.90;85.50
55313;DHT22;46892;45.668;11.756;2024-03-23T02:43:03;8.90;85.40
55313;DHT22;46892;45.668;11.756;2024-03-23T02:45:30;8.80;85.20
55313;DHT22;46892;45.668;11.756;2024-03-23T02:47:55;8.80;85.60
55313;DHT22;46892;45.668;11.756;2024-03-23T02:50:22;8.90;86.10
55313;DHT22;46892;45.668;11.756;2024-03-23T02:52:48;9.00;85.60
55313;DHT22;46892;45.668;11.756;2024-03-23T02:55:14;9.00;85.50
55313;DHT22;46892;45.668;11.756;2024-03-23T02:57:40;8.90;85.30
55313;DHT22;46892;45.668;11.756;2024-03-23T03:00:06;8.70;84.70
55313;DHT22;46892;45.668;11.756;2024-03-23T03:02:33;8.70;85.20
55313;DHT22;46892;45.668;11.756;2024-03-23T03:04:58;8.80;84.90
55313;DHT22;46892;45.668;11.756;2024-03-23T03:07:24;8.90;85.40
55313;DHT22;46892;45.668;11.756;2024-03-23T03:09:50;8.90;86.10
55313;DHT22;46892;45.668;11.756;2024-03-23T03:12:15;9.10;86.60
55313;DHT22;46892;45.668;11.756;2024-03-23T03:14:42;9.20;85.50
55313;DHT22;46892;45.668;11.756;2024-03-23T03:17:07;9.00;83.00
55313;DHT22;46892;45.668;11.756;2024-03-23T03:19:33;8.80;84.80
55313;DHT22;46892;45.668;11.756;2024-03-23T03:21:59;8.60;85.30
55313;DHT22;46892;45.668;11.756;2024-03-23T03:24:25;8.60;85.50
55313;DHT22;46892;45.668;11.756;2024-03-23T03:26:51;8.50;85.90
55313;DHT22;46892;45.668;11.756;2024-03-23T03:29:17;8.50;86.20
55313;DHT22;46892;45.668;11.756;2024-03-23T03:31:43;8.60;85.70
55313;DHT22;46892;45.668;11.756;2024-03-23T03:34:09;8.60;85.40
55313;DHT22;46892;45.668;11.756;2024-03-23T03:36:35;8.70;85.10
55313;DHT22;46892;45.668;11.756;2024-03-23T03:39:01;8.70;85.30
55313;DHT22;46892;45.668;11.756;2024-03-23T03:41:28;8.70;85.30
55313;DHT22;46892;45.668;11.756;2024-03-23T03:43:54;8.70;85.10
55313;DHT22;46892;45.668;11.756;2024-03-23T03:46:20;8.80;85.50
55313;DHT22;46892;45.668;11.756;2024-03-23T03:48:46;8.90;86.30
55313;DHT22;46892;45.668;11.756;2024-03-23T03:51:14;9.00;85.90
55313;DHT22;46892;45.668;11.756;2024-03-23T03:53:39;9.10;85.80
55313;DHT22;46892;45.668;11.756;2024-03-23T03:56:05;9.10;85.60
55313;DHT22;46892;45.668;11.756;2024-03-23T03:58:31;9.30;85.10
55313;DHT22;46892;45.668;11.756;2024-03-23T04:00:56;9.30;84.90
55313;DHT22;46892;45.668;11.756;2024-03-23T04:03:22;9.40;84.90
55313;DHT22;46892;45.668;11.756;2024-03-23T04:05:54;9.40;84.80
55313;DHT22;46892;45.668;11.756;2024-03-23T04:08:21;9.50;84.80
55313;DHT22;46892;45.668;11.756;2024-03-23T04:10:47;9.40;84.50
55313;DHT22;46892;45.668;11.756;2024-03-23T04:13:13;9.50;84.50
55313;DHT22;46892;45.668;11.756;2024-03-23T04:15:39;9.50;84.60
55313;DHT22;46892;45.668;11.756;2024-03-23T04:18:05;9.40;84.00
55313;DHT22;46892;45.668;11.756;2024-03-23T04:20:31;9.30;84.30
55313;DHT22;46892;45.668;11.756;2024-03-23T04:23:00;9.20;84.50
55313;DHT22;46892;45.668;11.756;2024-03-23T04:25:26;9.20;84.10
55313;DHT22;46892;45.668;11.756;2024-03-23T04:27:52;9.20;84.30
55313;DHT22;46892;45.668;11.756;2024-03-23T04:30:18;9.20;84.40
55313;DHT22;46892;45.668;11.756;2024-03-23T04:32:44;9.10;84.10
55313;DHT22;46892;45.668;11.756;2024-03-23T04:35:10;9.00;84.30
55313;DHT22;46892;45.668;11.756;2024-03-23T04:37:37;9.10;85.20
55313;DHT22;46892;45.668;11.756;2024-03-23T04:40:03;9.10;85.10
55313;DHT22;46892;45.668;11.756;2024-03-23T04:42:30;9.20;84.30
55313;DHT22;46892;45.668;11.756;2024-03-23T04:44:56;9.30;84.10
55313;DHT22;46892;45.668;11.756;2024-03-23T04:47:22;9.30;83.80
55313;DHT22;46892;45.668;11.756;2024-03-23T04:49:48;9.20;84.10
55313;DHT22;46892;45.668;11.756;2024-03-23T04:52:14;9.20;84.10
55313;DHT22;46892;45.668;11.756;2024-03-23T04:54:40;9.20;84.50
55313;DHT22;46892;45.668;11.756;2024-03-23T04:57:06;9.20;83.40
55313;DHT22;46892;45.668;11.756;2024-03-23T04:59:32;9.20;83.60
55313;DHT22;46892;45.668;11.756;2024-03-23T05:01:58;9.10;83.50
55313;DHT22;46892;45.668;11.756;2024-03-23T05:04:25;9.10;83.80
55313;DHT22;46892;45.668;11.756;2024-03-23T05:06:51;9.10;84.00
55313;DHT22;46892;45.668;11.756;2024-03-23T05:09:16;9.10;84.20
55313;DHT22;46892;45.668;11.756;2024-03-23T05:11:42;9.00;80.90
55313;DHT22;46892;45.668;11.756;2024-03-23T05:14:08;8.80;81.70
55313;DHT22;46892;45.668;11.756;2024-03-23T05:16:34;8.70;82.60
55313;DHT22;46892;45.668;11.756;2024-03-23T05:19:00;8.50;82.60
55313;DHT22;46892;45.668;11.756;2024-03-23T05:21:26;8.30;81.90
55313;DHT22;46892;45.668;11.756;2024-03-23T05:23:54;8.30;83.20
55313;DHT22;46892;45.668;11.756;2024-03-23T05:26:20;8.20;83.40
55313;DHT22;46892;45.668;11.756;2024-03-23T05:28:45;8.20;84.40
55313;DHT22;46892;45.668;11.756;2024-03-23T05:31:11;8.30;85.10
55313;DHT22;46892;45.668;11.756;2024-03-23T05:33:37;8.40;84.70
55313;DHT22;46892;45.668;11.756;2024-03-23T05:36:06;8.50;83.90
55313;DHT22;46892;45.668;11.756;2024-03-23T05:38:36;8.30;84.60
55313;DHT22;46892;45.668;11.756;2024-03-23T05:41:02;8.20;86.00
55313;DHT22;46892;45.668;11.756;2024-03-23T05:43:28;8.20;86.40
55313;DHT22;46892;45.668;11.756;2024-03-23T05:46:00;8.30;86.60
55313;DHT22;46892;45.668;11.756;2024-03-23T05:48:31;8.50;86.30
55313;DHT22;46892;45.668;11.756;2024-03-23T05:50:57;8.50;86.20
55313;DHT22;46892;45.668;11.756;2024-03-23T05:53:23;8.60;86.30
55313;DHT22;46892;45.668;11.756;2024-03-23T05:55:49;8.80;86.20
55313;DHT22;46892;45.668;11.756;2024-03-23T05:58:16;8.90;85.90
55313;DHT22;46892;45.668;11.756;2024-03-23T06:00:43;9.20;84.80
55313;DHT22;46892;45.668;11.756;2024-03-23T06:03:09;9.40;84.30
55313;DHT22;46892;45.668;11.756;2024-03-23T06:05:36;9.50;83.40
55313;DHT22;46892;45.668;11.756;2024-03-23T06:08:02;9.70;85.10
55313;DHT22;46892;45.668;11.756;2024-03-23T06:10:28;9.80;84.30
55313;DHT22;46892;45.668;11.756;2024-03-23T06:12:53;9.90;83.40
55313;DHT22;46892;45.668;11.756;2024-03-23T06:15:19;10.00;83.40
55313;DHT22;46892;45.668;11.756;2024-03-23T06:17:45;10.10;83.50
55313;DHT22;46892;45.668;11.756;2024-03-23T06:20:12;10.20;83.50
55313;DHT22;46892;45.668;11.756;2024-03-23T06:22:38;10.30;82.50
55313;DHT22;46892;45.668;11.756;2024-03-23T06:25:04;10.60;84.40
55313;DHT22;46892;45.668;11.756;2024-03-23T06:27:30;10.80;83.30
55313;DHT22;46892;45.668;11.756;2024-03-23T06:29:58;11.10;85.30
55313;DHT22;46892;45.668;11.756;2024-03-23T06:32:23;11.40;84.20
55313;DHT22;46892;45.668;11.756;2024-03-23T06:34:49;11.80;84.10
55313;DHT22;46892;45.668;11.756;2024-03-23T06:37:15;12.00;82.90
55313;DHT22;46892;45.668;11.756;2024-03-23T06:39:40;12.10;81.70
55313;DHT22;46892;45.668;11.756;2024-03-23T06:42:06;12.10;81.30
55313;DHT22;46892;45.668;11.756;2024-03-23T06:44:33;12.10;82.20
55313;DHT22;46892;45.668;11.756;2024-03-23T06:46:59;12.00;82.30
55313;DHT22;46892;45.668;11.756;2024-03-23T06:49:26;12.00;82.10
55313;DHT22;46892;45.668;11.756;2024-03-23T06:51:51;11.90;82.00
55313;DHT22;46892;45.668;11.756;2024-03-23T06:54:19;12.00;82.80
55313;DHT22;46892;45.668;11.756;2024-03-23T06:56:50;11.90;82.60
55313;DHT22;46892;45.668;11.756;2024-03-23T06:59:21;12.00;82.60
55313;DHT22;46892;45.668;11.756;2024-03-23T07:01:47;12.20;84.60
55313;DHT22;46892;45.668;11.756;2024-03-23T07:04:13;12.40;82.70
55313;DHT22;46892;45.668;11.756;2024-03-23T07:06:46;12.60;83.70
55313;DHT22;46892;45.668;11.756;2024-03-23T07:09:12;12.80;82.80
55313;DHT22;46892;45.668;11.756;2024-03-23T07:11:38;13.10;82.00
55313;DHT22;46892;45.668;11.756;2024-03-23T07:14:04;13.10;79.70
55313;DHT22;46892;45.668;11.756;2024-03-23T07:16:30;13.20;80.70
55313;DHT22;46892;45.668;11.756;2024-03-23T07:18:56;13.40;80.80
55313;DHT22;46892;45.668;11.756;2024-03-23T07:21:22;13.80;81.10
55313;DHT22;46892;45.668;11.756;2024-03-23T07:23:47;13.80;79.70
55313;DHT22;46892;45.668;11.756;2024-03-23T07:26:13;13.90;77.90
55313;DHT22;46892;45.668;11.756;2024-03-23T07:28:39;14.00;78.60
55313;DHT22;46892;45.668;11.756;2024-03-23T07:31:13;14.20;77.70
55313;DHT22;46892;45.668;11.756;2024-03-23T07:33:48;14.40;76.80
55313;DHT22;46892;45.668;11.756;2024-03-23T07:36:14;14.70;76.60
55313;DHT22;46892;45.668;11.756;2024-03-23T07:38:41;14.80;77.30
55313;DHT22;46892;45.668;11.756;2024-03-23T07:41:09;14.90;74.70
55313;DHT22;46892;45.668;11.756;2024-03-23T07:43:38;15.10;74.70
55313;DHT22;46892;45.668;11.756;2024-03-23T07:46:05;15.20;73.90
55313;DHT22;46892;45.668;11.756;2024-03-23T07:48:32;15.20;72.70
55313;DHT22;46892;45.668;11.756;2024-03-23T07:51:10;15.20;74.40
55313;DHT22;46892;45.668;11.756;2024-03-23T07:53:37;15.30;75.60
55313;DHT22;46892;45.668;11.756;2024-03-23T07:58:29;15.20;71.20
55313;DHT22;46892;45.668;11.756;2024-03-23T08:00:56;15.10;72.80
55313;DHT22;46892;45.668;11.756;2024-03-23T08:03:22;15.10;73.60
55313;DHT22;46892;45.668;11.756;2024-03-23T08:05:48;15.20;75.80
55313;DHT22;46892;45.668;11.756;2024-03-23T08:08:14;15.30;73.60
55313;DHT22;46892;45.668;11.756;2024-03-23T08:10:50;15.30;74.80
55313;DHT22;46892;45.668;11.756;2024-03-23T08:13:16;15.40;73.80
55313;DHT22;46892;45.668;11.756;2024-03-23T08:15:43;15.30;73.40
55313;DHT22;46892;45.668;11.756;2024-03-23T08:18:13;15.30;75.20
55313;DHT22;46892;45.668;11.756;2024-03-23T08:20:41;15.50;72.50
55313;DHT22;46892;45.668;11.756;2024-03-23T08:23:07;15.40;74.00
55313;DHT22;46892;45.668;11.756;2024-03-23T08:25:34;15.30;73.30
55313;DHT22;46892;45.668;11.756;2024-03-23T08:28:00;15.50;75.00
55313;DHT22;46892;45.668;11.756;2024-03-23T08:30:28;15.50;75.20
55313;DHT22;46892;45.668;11.756;2024-03-23T08:32:54;15.60;73.50
55313;DHT22;46892;45.668;11.756;2024-03-23T08:35:20;15.60;73.90
55313;DHT22;46892;45.668;11.756;2024-03-23T08:37:46;15.70;74.80
55313;DHT22;46892;45.668;11.756;2024-03-23T08:40:12;15.70;75.00
55313;DHT22;46892;45.668;11.756;2024-03-23T08:42:38;15.80;74.00
55313;DHT22;46892;45.668;11.756;2024-03-23T08:45:04;15.80;74.80
55313;DHT22;46892;45.668;11.756;2024-03-23T08:47:32;15.80;74.50
55313;DHT22;46892;45.668;11.756;2024-03-23T08:50:00;15.80;74.10
55313;DHT22;46892;45.668;11.756;2024-03-23T08:52:25;15.80;75.50
55313;DHT22;46892;45.668;11.756;2024-03-23T08:54:54;15.80;74.10
55313;DHT22;46892;45.668;11.756;2024-03-23T08:57:19;15.90;74.60
55313;DHT22;46892;45.668;11.756;2024-03-23T08:59:45;15.80;74.60
55313;DHT22;46892;45.668;11.756;2024-03-23T09:02:11;15.80;75.50
55313;DHT22;46892;45.668;11.756;2024-03-23T09:04:36;15.90;75.50
55313;DHT22;46892;45.668;11.756;2024-03-23T09:07:02;16.00;74.80
55313;DHT22;46892;45.668;11.756;2024-03-23T09:09:28;16.10;76.20
55313;DHT22;46892;45.668;11.756;2024-03-23T09:11:53;16.20;73.90
55313;DHT22;46892;45.668;11.756;2024-03-23T09:14:19;16.30;75.10
55313;DHT22;46892;45.668;11.756;2024-03-23T09:16:45;16.40;75.40
55313;DHT22;46892;45.668;11.756;2024-03-23T09:19:11;16.30;74.50
55313;DHT22;46892;45.668;11.756;2024-03-23T09:21:37;16.40;74.30
55313;DHT22;46892;45.668;11.756;2024-03-23T09:24:04;16.30;73.10
55313;DHT22;46892;45.668;11.756;2024-03-23T09:26:30;16.30;74.50
55313;DHT22;46892;45.668;11.756;2024-03-23T09:28:55;16.50;74.30
55313;DHT22;46892;45.668;11.756;2024-03-23T09:31:21;16.60;74.70
55313;DHT22;46892;45.668;11.756;2024-03-23T09:33:47;16.60;73.20
55313;DHT22;46892;45.668;11.756;2024-03-23T09:36:13;16.50;73.00
55313;DHT22;46892;45.668;11.756;2024-03-23T09:38:39;16.40;73.80
55313;DHT22;46892;45.668;11.756;2024-03-23T09:41:09;16.40;74.50
55313;DHT22;46892;45.668;11.756;2024-03-23T09:43:35;16.40;73.40
55313;DHT22;46892;45.668;11.756;2024-03-23T09:46:04;16.50;72.60
55313;DHT22;46892;45.668;11.756;2024-03-23T09:48:31;16.30;71.30
55313;DHT22;46892;45.668;11.756;2024-03-23T09:50:57;16.30;72.50
55313;DHT22;46892;45.668;11.756;2024-03-23T09:53:22;16.30;72.40
55313;DHT22;46892;45.668;11.756;2024-03-23T09:55:48;16.30;74.10
55313;DHT22;46892;45.668;11.756;2024-03-23T09:58:18;16.20;72.60
55313;DHT22;46892;45.668;11.756;2024-03-23T10:00:44;16.30;71.40
55313;DHT22;46892;45.668;11.756;2024-03-23T10:03:10;16.40;74.80
55313;DHT22;46892;45.668;11.756;2024-03-23T10:05:37;16.50;71.30
55313;DHT22;46892;45.668;11.756;2024-03-23T10:10:41;16.60;71.60
55313;DHT22;46892;45.668;11.756;2024-03-23T10:13:07;16.70;73.70
55313;DHT22;46892;45.668;11.756;2024-03-23T10:15:37;16.60;71.10
55313;DHT22;46892;45.668;11.756;2024-03-23T10:18:19;16.60;72.90
55313;DHT22;46892;45.668;11.756;2024-03-23T10:20:55;16.70;73.70
55313;DHT22;46892;45.668;11.756;2024-03-23T10:23:41;16.90;70.40
55313;DHT22;46892;45.668;11.756;2024-03-23T10:26:19;16.90;72.20
55313;DHT22;46892;45.668;11.756;2024-03-23T10:28:58;16.90;67.20
55313;DHT22;46892;45.668;11.756;2024-03-23T10:31:32;17.00;68.80
55313;DHT22;46892;45.668;11.756;2024-03-23T10:33:58;17.00;71.20
55313;DHT22;46892;45.668;11.756;2024-03-23T10:36:26;17.00;69.50
55313;DHT22;46892;45.668;11.756;2024-03-23T10:38:54;17.00;67.30
55313;DHT22;46892;45.668;11.756;2024-03-23T10:41:20;17.00;66.00
55313;DHT22;46892;45.668;11.756;2024-03-23T10:43:49;17.00;67.80
55313;DHT22;46892;45.668;11.756;2024-03-23T10:46:15;17.00;68.80
55313;DHT22;46892;45.668;11.756;2024-03-23T10:48:41;17.10;70.30
55313;DHT22;46892;45.668;11.756;2024-03-23T10:51:09;17.20;67.80
55313;DHT22;46892;45.668;11.756;2024-03-23T10:53:35;17.30;69.40
55313;DHT22;46892;45.668;11.756;2024-03-23T10:56:03;17.30;69.10
55313;DHT22;46892;45.668;11.756;2024-03-23T10:58:43;17.40;68.80
55313;DHT22;46892;45.668;11.756;2024-03-23T11:01:13;17.50;68.20
55313;DHT22;46892;45.668;11.756;2024-03-23T11:03:39;17.50;70.80
55313;DHT22;46892;45.668;11.756;2024-03-23T11:06:09;17.60;67.40
55313;DHT22;46892;45.668;11.756;2024-03-23T11:08:39;17.60;67.20
55313;DHT22;46892;45.668;11.756;2024-03-23T11:11:20;17.70;67.70
55313;DHT22;46892;45.668;11.756;2024-03-23T11:13:51;17.40;66.00
55313;DHT22;46892;45.668;11.756;2024-03-23T11:16:28;17.40;68.40
55313;DHT22;46892;45.668;11.756;2024-03-23T11:19:35;17.40;67.80
55313;DHT22;46892;45.668;11.756;2024-03-23T11:22:05;17.40;67.20
55313;DHT22;46892;45.668;11.756;2024-03-23T11:24:32;17.40;67.70
55313;DHT22;46892;45.668;11.756;2024-03-23T11:26:58;17.40;67.80
55313;DHT22;46892;45.668;11.756;2024-03-23T11:29:29;17.50;66.70
55313;DHT22;46892;45.668;11.756;2024-03-23T11:31:55;17.60;65.50
55313;DHT22;46892;45.668;11.756;2024-03-23T11:34:22;17.70;65.30
55313;DHT22;46892;45.668;11.756;2024-03-23T11:36:48;17.80;66.30
55313;DHT22;46892;45.668;11.756;2024-03-23T11:39:19;17.80;67.20
55313;DHT22;46892;45.668;11.756;2024-03-23T11:41:49;17.90;69.00
55313;DHT22;46892;45.668;11.756;2024-03-23T11:44:22;18.00;65.30
55313;DHT22;46892;45.668;11.756;2024-03-23T11:46:48;18.00;68.70
55313;DHT22;46892;45.668;11.756;2024-03-23T11:49:28;18.00;66.30
55313;DHT22;46892;45.668;11.756;2024-03-23T11:51:57;17.80;63.30
55313;DHT22;46892;45.668;11.756;2024-03-23T11:54:24;17.80;64.10
55313;DHT22;46892;45.668;11.756;2024-03-23T11:57:00;17.80;66.40
55313;DHT22;46892;45.668;11.756;2024-03-23T11:59:39;17.90;66.30
55313;DHT22;46892;45.668;11.756;2024-03-23T12:02:10;18.00;65.60
55313;DHT22;46892;45.668;11.756;2024-03-23T12:04:37;18.30;66.50
55313;DHT22;46892;45.668;11.756;2024-03-23T12:09:36;18.40;66.00
55313;DHT22;46892;45.668;11.756;2024-03-23T12:12:20;18.30;62.80
55313;DHT22;46892;45.668;11.756;2024-03-23T12:15:02;18.00;62.90
55313;DHT22;46892;45.668;11.756;2024-03-23T12:17:28;18.00;64.40
55313;DHT22;46892;45.668;11.756;2024-03-23T12:19:54;18.00;66.60
55313;DHT22;46892;45.668;11.756;2024-03-23T12:22:23;18.10;65.00
55313;DHT22;46892;45.668;11.756;2024-03-23T12:24:49;18.20;63.00
55313;DHT22;46892;45.668;11.756;2024-03-23T12:27:15;18.30;66.70
55313;DHT22;46892;45.668;11.756;2024-03-23T12:29:41;18.50;64.70
55313;DHT22;46892;45.668;11.756;2024-03-23T12:32:08;18.50;64.30
55313;DHT22;46892;45.668;11.756;2024-03-23T12:34:34;18.70;63.00
55313;DHT22;46892;45.668;11.756;2024-03-23T12:37:00;18.70;62.50
55313;DHT22;46892;45.668;11.756;2024-03-23T12:39:27;18.70;63.80
55313;DHT22;46892;45.668;11.756;2024-03-23T12:41:52;18.70;61.50
55313;DHT22;46892;45.668;11.756;2024-03-23T12:44:18;18.80;62.90
55313;DHT22;46892;45.668;11.756;2024-03-23T12:46:44;18.80;61.20
55313;DHT22;46892;45.668;11.756;2024-03-23T12:49:10;18.70;61.40
55313;DHT22;46892;45.668;11.756;2024-03-23T12:51:36;18.60;61.60
55313;DHT22;46892;45.668;11.756;2024-03-23T12:54:04;18.50;64.60
55313;DHT22;46892;45.668;11.756;2024-03-23T12:56:30;18.40;64.20
55313;DHT22;46892;45.668;11.756;2024-03-23T12:58:58;18.40;62.80
55313;DHT22;46892;45.668;11.756;2024-03-23T13:01:26;18.30;61.90
55313;DHT22;46892;45.668;11.756;2024-03-23T13:03:52;18.30;61.20
55313;DHT22;46892;45.668;11.756;2024-03-23T13:06:18;18.50;63.70
55313;DHT22;46892;45.668;11.756;2024-03-23T13:08:45;18.50;61.00
55313;DHT22;46892;45.668;11.756;2024-03-23T13:11:11;18.50;60.60
55313;DHT22;46892;45.668;11.756;2024-03-23T13:13:37;18.50;61.30
55313;DHT22;46892;45.668;11.756;2024-03-23T13:16:04;18.50;60.70
55313;DHT22;46892;45.668;11.756;2024-03-23T13:18:31;18.60;65.00
55313;DHT22;46892;45.668;11.756;2024-03-23T13:21:00;18.80;61.60
55313;DHT22;46892;45.668;11.756;2024-03-23T13:23:26;19.00;61.70
55313;DHT22;46892;45.668;11.756;2024-03-23T13:25:53;19.20;61.20
55313;DHT22;46892;45.668;11.756;2024-03-23T13:28:20;19.20;61.60
55313;DHT22;46892;45.668;11.756;2024-03-23T13:30:55;19.30;61.00
55313;DHT22;46892;45.668;11.756;2024-03-23T13:33:22;19.40;60.80
55313;DHT22;46892;45.668;11.756;2024-03-23T13:35:54;19.50;61.40
55313;DHT22;46892;45.668;11.756;2024-03-23T13:38:21;19.50;60.10
55313;DHT22;46892;45.668;11.756;2024-03-23T13:40:57;19.50;61.90
55313;DHT22;46892;45.668;11.756;2024-03-23T13:43:24;19.50;59.20
55313;DHT22;46892;45.668;11.756;2024-03-23T13:45:55;19.40;56.00
55313;DHT22;46892;45.668;11.756;2024-03-23T13:48:22;19.50;58.60
55313;DHT22;46892;45.668;11.756;2024-03-23T13:51:00;19.40;59.50
55313;DHT22;46892;45.668;11.756;2024-03-23T13:53:26;19.30;59.10
55313;DHT22;46892;45.668;11.756;2024-03-23T13:55:52;19.10;57.70
55313;DHT22;46892;45.668;11.756;2024-03-23T13:58:18;19.00;58.10
55313;DHT22;46892;45.668;11.756;2024-03-23T14:00:44;18.80;59.80
55313;DHT22;46892;45.668;11.756;2024-03-23T14:03:13;18.80;60.80
55313;DHT22;46892;45.668;11.756;2024-03-23T14:05:40;18.80;62.20
55313;DHT22;46892;45.668;11.756;2024-03-23T14:08:10;18.70;60.70
55313;DHT22;46892;45.668;11.756;2024-03-23T14:10:39;18.80;60.00
55313;DHT22;46892;45.668;11.756;2024-03-23T14:13:05;18.80;60.80
55313;DHT22;46892;45.668;11.756;2024-03-23T14:15:31;18.80;60.40
55313;DHT22;46892;45.668;11.756;2024-03-23T14:17:57;18.90;61.40
55313;DHT22;46892;45.668;11.756;2024-03-23T14:20:23;18.90;60.30
55313;DHT22;46892;45.668;11.756;2024-03-23T14:22:52;19.00;59.80
55313;DHT22;46892;45.668;11.756;2024-03-23T14:25:18;19.00;60.60
55313;DHT22;46892;45.668;11.756;2024-03-23T14:27:44;19.00;59.30
55313;DHT22;46892;45.668;11.756;2024-03-23T14:30:11;18.90;59.70
55313;DHT22;46892;45.668;11.756;2024-03-23T14:32:38;18.90;59.90
55313;DHT22;46892;45.668;11.756;2024-03-23T14:35:06;19.00;57.50
55313;DHT22;46892;45.668;11.756;2024-03-23T14:37:39;19.10;58.90
55313;DHT22;46892;45.668;11.756;2024-03-23T14:40:07;19.20;58.40
55313;DHT22;46892;45.668;11.756;2024-03-23T14:42:33;19.20;58.30
55313;DHT22;46892;45.668;11.756;2024-03-23T14:44:59;19.20;57.40
55313;DHT22;46892;45.668;11.756;2024-03-23T14:47:25;19.20;58.00
55313;DHT22;46892;45.668;11.756;2024-03-23T14:49:51;19.20;59.20
55313;DHT22;46892;45.668;11.756;2024-03-23T14:52:17;19.10;59.10
55313;DHT22;46892;45.668;11.756;2024-03-23T14:54:46;19.20;59.60
55313;DHT22;46892;45.668;11.756;2024-03-23T14:57:12;19.00;59.10
55313;DHT22;46892;45.668;11.756;2024-03-23T14:59:38;19.00;60.60
55313;DHT22;46892;45.668;11.756;2024-03-23T15:02:07;18.90;61.00
55313;DHT22;46892;45.668;11.756;2024-03-23T15:04:33;18.80;61.90
55313;DHT22;46892;45.668;11.756;2024-03-23T15:06:59;18.80;61.50
55313;DHT22;46892;45.668;11.756;2024-03-23T15:09:25;18.70;59.90
55313;DHT22;46892;45.668;11.756;2024-03-23T15:11:51;18.70;60.40
55313;DHT22;46892;45.668;11.756;2024-03-23T15:14:17;18.70;59.80
55313;DHT22;46892;45.668;11.756;2024-03-23T15:16:42;18.70;59.10
55313;DHT22;46892;45.668;11.756;2024-03-23T15:19:08;18.60;60.30
55313;DHT22;46892;45.668;11.756;2024-03-23T15:21:34;18.60;60.50
55313;DHT22;46892;45.668;11.756;2024-03-23T15:24:01;18.50;60.60
55313;DHT22;46892;45.668;11.756;2024-03-23T15:26:27;18.50;59.80
55313;DHT22;46892;45.668;11.756;2024-03-23T15:28:52;18.40;59.80
55313;DHT22;46892;45.668;11.756;2024-03-23T15:31:25;18.40;60.70
55313;DHT22;46892;45.668;11.756;2024-03-23T15:33:52;18.40;61.90
55313;DHT22;46892;45.668;11.756;2024-03-23T15:36:18;18.30;61.50
55313;DHT22;46892;45.668;11.756;2024-03-23T15:38:44;18.20;61.50
55313;DHT22;46892;45.668;11.756;2024-03-23T15:41:10;18.10;60.40
55313;DHT22;46892;45.668;11.756;2024-03-23T15:43:36;18.00;60.30
55313;DHT22;46892;45.668;11.756;2024-03-23T15:46:04;18.00;60.40
55313;DHT22;46892;45.668;11.756;2024-03-23T15:48:31;17.90;60.10
55313;DHT22;46892;45.668;11.756;2024-03-23T15:51:02;17.90;60.00
55313;DHT22;46892;45.668;11.756;2024-03-23T15:53:29;17.90;61.10
55313;DHT22;46892;45.668;11.756;2024-03-23T15:56:02;17.90;60.10
55313;DHT22;46892;45.668;11.756;2024-03-23T15:58:30;17.90;60.40
55313;DHT22;46892;45.668;11.756;2024-03-23T16:01:00;17.90;61.60
55313;DHT22;46892;45.668;11.756;2024-03-23T16:03:26;18.00;61.10
55313;DHT22;46892;45.668;11.756;2024-03-23T16:06:00;18.00;60.40
55313;DHT22;46892;45.668;11.756;2024-03-23T16:08:27;18.10;60.40
55313;DHT22;46892;45.668;11.756;2024-03-23T16:10:53;18.10;60.40
55313;DHT22;46892;45.668;11.756;2024-03-23T16:13:22;18.10;60.50
55313;DHT22;46892;45.668;11.756;2024-03-23T16:15:55;18.10;60.50
55313;DHT22;46892;45.668;11.756;2024-03-23T16:18:21;18.20;60.90
55313;DHT22;46892;45.668;11.756;2024-03-23T16:20:58;18.20;61.80
55313;DHT22;46892;45.668;11.756;2024-03-23T16:23:24;18.20;61.50